Time;durP1;ratioP1;P1;durP2;ratioP2;P2;SDS_P1;SDS_P2;PMS_P1;PMS_P2;Temp;Humidity;BMP_temperature;BMP_pressure;BME280_temperature;BME280_humidity;BME280_pressure;Samples;Min_cycle;Max_cycle;Signal;HPM_P1;HPM_P2
2023/11/26 00:00:25;;;;;;;2.85;1.15;;;-0.90;100.00;;;;;;5014604;28;20646;-72
2023/11/26 00:02:52;;;;;;;3.67;1.05;;;-0.90;100.00;;;;;;5010632;28;20053;-72
2023/11/26 00:05:19;;;;;;;2.97;1.25;;;-0.90;100.00;;;;;;5003368;28;20053;-72
2023/11/26 00:07:46;;;;;;;1.00;0.70;;;-0.90;100.00;;;;;;5030032;28;20053;-72
2023/11/26 00:10:13;;;;;;;1.95;0.93;;;-0.90;100.00;;;;;;5022856;28;20840;-72
2023/11/26 00:12:40;;;;;;;4.03;1.40;;;-0.90;100.00;;;;;;5016070;28;20053;-72
2023/11/26 00:15:08;;;;;;;4.03;1.08;;;-0.90;100.00;;;;;;5019963;28;20045;-72
2023/11/26 00:17:35;;;;;;;1.58;0.73;;;-0.90;100.00;;;;;;5024916;28;20864;-72
2023/11/26 00:20:06;;;;;;;2.78;1.10;;;-0.90;100.00;;;;;;5013161;28;20076;-72
2023/11/26 00:22:33;;;;;;;2.80;1.20;;;-0.90;100.00;;;;;;5031365;28;20062;-75
2023/11/26 00:25:00;;;;;;;6.82;1.25;;;-0.90;100.00;;;;;;5028471;28;20069;-75
2023/11/26 00:27:27;;;;;;;3.90;1.42;;;-1.00;100.00;;;;;;5002658;28;20049;-75
2023/11/26 00:29:55;;;;;;;2.90;1.20;;;-0.90;100.00;;;;;;5025716;28;20622;-75
2023/11/26 00:32:22;;;;;;;3.30;1.42;;;-1.00;100.00;;;;;;5017443;28;20042;-75
2023/11/26 00:34:49;;;;;;;8.75;1.42;;;-1.00;100.00;;;;;;5005426;28;20617;-72
2023/11/26 00:37:16;;;;;;;2.33;1.17;;;-1.00;100.00;;;;;;5014273;28;20045;-72
2023/11/26 00:39:43;;;;;;;6.22;1.20;;;-1.00;100.00;;;;;;5014735;28;20054;-72
2023/11/26 00:42:10;;;;;;;4.95;1.20;;;-1.00;100.00;;;;;;5016679;28;20104;-72
2023/11/26 00:44:37;;;;;;;3.25;1.33;;;-1.00;100.00;;;;;;5012170;28;20138;-72
2023/11/26 00:47:05;;;;;;;9.05;1.80;;;-1.00;100.00;;;;;;4997312;28;20856;-72
2023/11/26 00:49:32;;;;;;;2.83;1.00;;;-1.00;100.00;;;;;;5023206;28;20064;-72
2023/11/26 00:54:29;;;;;;;9.68;1.77;;;-1.10;100.00;;;;;;5036446;28;20048;-75
2023/11/26 00:56:56;;;;;;;6.68;1.67;;;-1.10;100.00;;;;;;5041291;28;20044;-74
2023/11/26 00:59:23;;;;;;;8.40;1.92;;;-1.10;100.00;;;;;;5040232;28;20044;-75
2023/11/26 01:01:50;;;;;;;5.90;1.33;;;-1.10;100.00;;;;;;5042245;28;20041;-75
2023/11/26 01:04:17;;;;;;;2.65;1.25;;;-1.20;100.00;;;;;;5044707;28;20397;-75
2023/11/26 01:06:44;;;;;;;5.50;1.30;;;-1.20;100.00;;;;;;5044310;28;20049;-75
2023/11/26 01:09:12;;;;;;;3.85;1.70;;;-1.20;100.00;;;;;;5044347;28;20124;-75
2023/11/26 01:11:39;;;;;;;6.47;1.85;;;-1.20;100.00;;;;;;5039339;28;20610;-75
2023/11/26 01:14:07;;;;;;;4.78;1.40;;;-1.20;100.00;;;;;;5044350;28;20041;-75
2023/11/26 01:16:34;;;;;;;3.30;1.02;;;-1.10;100.00;;;;;;5045198;28;20104;-75
2023/11/26 01:19:01;;;;;;;3.30;1.38;;;-1.20;100.00;;;;;;5043061;28;20076;-75
2023/11/26 01:21:28;;;;;;;3.55;1.20;;;-1.10;100.00;;;;;;5042552;28;20044;-75
2023/11/26 01:23:55;;;;;;;6.50;1.45;;;-1.20;100.00;;;;;;5040439;28;20055;-75
2023/11/26 01:26:22;;;;;;;4.88;1.13;;;-1.20;100.00;;;;;;5044643;28;20060;-75
2023/11/26 01:28:49;;;;;;;2.28;1.10;;;-1.10;100.00;;;;;;5042901;28;20563;-75
2023/11/26 01:31:16;;;;;;;4.00;1.02;;;-1.10;100.00;;;;;;5045110;28;20041;-75
2023/11/26 01:33:44;;;;;;;2.45;0.85;;;-1.00;100.00;;;;;;5039358;28;20081;-75
2023/11/26 01:36:11;;;;;;;3.30;1.30;;;-1.00;100.00;;;;;;5041904;28;20134;-75
2023/11/26 01:38:38;;;;;;;3.13;0.90;;;-0.90;100.00;;;;;;5038809;28;20726;-75
2023/11/26 01:41:05;;;;;;;3.90;1.48;;;-0.90;100.00;;;;;;5040381;28;20076;-75
2023/11/26 01:43:32;;;;;;;3.60;1.27;;;-0.80;100.00;;;;;;5034344;28;20456;-74
2023/11/26 01:46:12;;;;;;;2.65;1.10;;;-0.70;100.00;;;;;;5040711;28;20045;-75
2023/11/26 01:48:40;;;;;;;2.20;0.75;;;-0.70;100.00;;;;;;5040285;28;20048;-75
2023/11/26 01:51:10;;;;;;;7.10;1.00;;;-0.70;100.00;;;;;;5043196;28;20134;-75
2023/11/26 01:53:41;;;;;;;3.45;1.67;;;-0.60;100.00;;;;;;5042045;28;20045;-75
2023/11/26 01:56:08;;;;;;;5.18;1.05;;;-0.60;100.00;;;;;;5040883;28;20134;-75
2023/11/26 01:58:36;;;;;;;4.07;1.27;;;-0.60;100.00;;;;;;5042120;28;20053;-75
2023/11/26 02:01:03;;;;;;;3.72;1.13;;;-0.60;100.00;;;;;;5038843;28;20131;-75
2023/11/26 02:03:30;;;;;;;2.15;1.27;;;-0.60;100.00;;;;;;5037864;28;20070;-75
2023/11/26 02:05:57;;;;;;;3.58;1.20;;;-0.50;100.00;;;;;;5040618;28;20045;-75
2023/11/26 02:08:26;;;;;;;3.55;1.20;;;-0.50;100.00;;;;;;5058144;28;20071;-75
2023/11/26 02:10:53;;;;;;;4.90;0.90;;;-0.50;100.00;;;;;;5039313;28;20118;-75
2023/11/26 02:13:20;;;;;;;6.10;1.02;;;-0.50;100.00;;;;;;5038852;28;20059;-75
2023/11/26 02:15:47;;;;;;;2.28;1.00;;;-0.50;100.00;;;;;;5040884;28;20045;-75
2023/11/26 02:18:14;;;;;;;3.85;1.05;;;-0.50;100.00;;;;;;5041112;28;20053;-75
2023/11/26 02:20:42;;;;;;;3.75;1.00;;;-0.50;100.00;;;;;;5039079;28;20064;-75
2023/11/26 02:23:09;;;;;;;2.45;1.10;;;-0.50;100.00;;;;;;5041478;28;20053;-75
2023/11/26 02:25:36;;;;;;;2.08;0.95;;;-0.50;100.00;;;;;;5036790;28;20087;-75
2023/11/26 02:28:05;;;;;;;1.73;1.00;;;-0.40;100.00;;;;;;5041078;28;20044;-75
2023/11/26 02:30:34;;;;;;;3.03;0.75;;;-0.50;100.00;;;;;;5040115;28;20134;-75
2023/11/26 02:33:01;;;;;;;2.15;1.00;;;-0.40;100.00;;;;;;5037144;28;20136;-75
2023/11/26 02:35:28;;;;;;;1.83;0.90;;;-0.40;100.00;;;;;;5042665;28;20128;-75
2023/11/26 02:37:55;;;;;;;3.90;1.10;;;-0.40;100.00;;;;;;5040966;28;20049;-75
2023/11/26 02:40:24;;;;;;;2.75;0.98;;;-0.40;100.00;;;;;;5038552;28;20056;-75
2023/11/26 02:42:51;;;;;;;2.17;0.68;;;-0.40;100.00;;;;;;5040306;28;20052;-75
2023/11/26 02:45:18;;;;;;;1.92;0.82;;;-0.40;100.00;;;;;;5035356;28;20060;-75
2023/11/26 02:47:45;;;;;;;1.77;0.95;;;-0.40;100.00;;;;;;5041972;28;20044;-75
2023/11/26 02:50:12;;;;;;;2.25;0.90;;;-0.40;100.00;;;;;;5041134;28;20052;-75
2023/11/26 02:52:39;;;;;;;1.73;0.85;;;-0.50;100.00;;;;;;5038324;28;20048;-75
2023/11/26 02:55:07;;;;;;;3.15;1.00;;;-0.50;100.00;;;;;;5038708;28;20138;-75
2023/11/26 02:57:33;;;;;;;2.75;0.98;;;-0.50;100.00;;;;;;5042387;28;20057;-75
2023/11/26 03:00:00;;;;;;;2.17;0.90;;;-0.60;100.00;;;;;;5056163;28;20059;-75
2023/11/26 03:02:34;;;;;;;2.40;0.93;;;-0.70;100.00;;;;;;5039918;28;20444;-75
2023/11/26 03:05:05;;;;;;;1.65;0.98;;;-0.80;100.00;;;;;;5039283;28;20549;-75
2023/11/26 03:07:34;;;;;;;4.22;0.70;;;-0.80;100.00;;;;;;5040348;28;20072;-75
2023/11/26 03:13:07;;;;;;;1.17;0.68;;;-1.00;100.00;;;;;;5040593;28;20049;-75
2023/11/26 03:15:37;;;;;;;1.02;0.70;;;-1.10;100.00;;;;;;5042884;28;20053;-75
2023/11/26 03:18:05;;;;;;;2.10;0.93;;;-1.20;100.00;;;;;;5039652;28;20048;-75
2023/11/26 03:20:32;;;;;;;2.30;0.93;;;-1.30;100.00;;;;;;5040504;28;20051;-75
2023/11/26 03:22:59;;;;;;;3.47;0.90;;;-1.40;100.00;;;;;;5039777;28;20056;-75
2023/11/26 03:25:26;;;;;;;2.55;1.13;;;-1.40;100.00;;;;;;5038899;28;20629;-75
2023/11/26 03:27:54;;;;;;;1.48;0.80;;;-1.50;100.00;;;;;;5036295;28;20507;-75
2023/11/26 03:30:21;;;;;;;2.50;0.98;;;-1.50;100.00;;;;;;5042869;28;20067;-75
2023/11/26 03:32:48;;;;;;;5.13;0.80;;;-1.60;100.00;;;;;;5038256;28;20486;-75
2023/11/26 03:35:16;;;;;;;1.77;1.08;;;-1.60;100.00;;;;;;5039032;28;20058;-75
2023/11/26 03:37:43;;;;;;;2.17;1.15;;;-1.70;100.00;;;;;;5039244;28;20051;-75
2023/11/26 03:40:10;;;;;;;0.85;0.80;;;-1.70;100.00;;;;;;5042663;28;20069;-75
2023/11/26 03:42:39;;;;;;;1.73;0.98;;;-1.80;100.00;;;;;;5040966;28;20045;-75
2023/11/26 03:45:06;;;;;;;1.70;0.90;;;-1.90;100.00;;;;;;5042627;28;20297;-75
2023/11/26 03:47:33;;;;;;;1.33;0.88;;;-1.90;100.00;;;;;;5040201;28;20103;-75
2023/11/26 03:50:03;;;;;;;2.63;1.20;;;-2.00;100.00;;;;;;5040480;28;20045;-75
2023/11/26 03:52:30;;;;;;;2.72;1.00;;;-2.00;100.00;;;;;;5041936;28;20620;-75
2023/11/26 03:54:57;;;;;;;1.80;1.27;;;-2.00;100.00;;;;;;5040958;28;20044;-75
2023/11/26 03:57:25;;;;;;;4.65;0.77;;;-2.10;100.00;;;;;;5037678;28;20077;-74
2023/11/26 03:59:52;;;;;;;0.95;0.70;;;-2.10;100.00;;;;;;5039883;28;20098;-72
2023/11/26 04:02:19;;;;;;;6.70;1.33;;;-2.10;100.00;;;;;;5041715;28;20056;-72
2023/11/26 04:04:46;;;;;;;9.38;1.02;;;-2.20;100.00;;;;;;5041686;28;20390;-72
2023/11/26 04:07:13;;;;;;;3.42;0.93;;;-2.20;100.00;;;;;;5040963;28;20090;-72
2023/11/26 04:09:40;;;;;;;5.32;1.00;;;-2.20;100.00;;;;;;5039230;28;20052;-71
2023/11/26 04:12:07;;;;;;;1.35;0.70;;;-2.30;100.00;;;;;;5040880;28;20048;-71
2023/11/26 04:14:34;;;;;;;1.77;0.90;;;-2.30;100.00;;;;;;5040274;28;20720;-71
2023/11/26 04:17:02;;;;;;;1.20;0.60;;;-2.40;100.00;;;;;;5039963;28;20055;-71
2023/11/26 04:19:29;;;;;;;4.35;1.25;;;-2.40;100.00;;;;;;5036201;28;20049;-71
2023/11/26 04:21:56;;;;;;;1.85;1.02;;;-2.40;100.00;;;;;;5038273;28;20048;-71
2023/11/26 04:24:23;;;;;;;2.50;0.93;;;-2.50;100.00;;;;;;5039660;28;20076;-71
2023/11/26 04:26:50;;;;;;;1.48;0.63;;;-2.50;100.00;;;;;;5039883;28;20045;-71
2023/11/26 04:29:17;;;;;;;2.47;1.08;;;-2.60;100.00;;;;;;5038949;28;20450;-71
2023/11/26 04:31:44;;;;;;;2.47;1.25;;;-2.60;100.00;;;;;;5037651;28;20049;-71
2023/11/26 04:34:11;;;;;;;2.50;1.38;;;-2.70;100.00;;;;;;5036903;28;20049;-71
2023/11/26 04:36:38;;;;;;;4.95;1.60;;;-2.70;100.00;;;;;;5040605;28;20851;-71
2023/11/26 04:39:05;;;;;;;7.32;1.52;;;-2.80;100.00;;;;;;5040399;28;20638;-71
2023/11/26 04:41:32;;;;;;;2.25;0.88;;;-2.90;100.00;;;;;;5038878;28;20049;-71
2023/11/26 04:43:59;;;;;;;2.90;0.70;;;-3.00;100.00;;;;;;5039584;28;20045;-71
2023/11/26 04:46:26;;;;;;;4.35;1.10;;;-3.00;100.00;;;;;;5034595;28;20045;-71
2023/11/26 04:48:53;;;;;;;2.88;1.17;;;-3.10;100.00;;;;;;5037457;28;20037;-71
2023/11/26 04:51:21;;;;;;;1.42;0.68;;;-3.10;100.00;;;;;;5041343;28;20137;-71
2023/11/26 04:53:49;;;;;;;1.98;0.95;;;-3.20;100.00;;;;;;5035789;28;20045;-71
2023/11/26 04:56:16;;;;;;;5.65;1.08;;;-3.20;100.00;;;;;;5038602;28;20834;-71
2023/11/26 04:58:42;;;;;;;1.40;0.77;;;-3.30;100.00;;;;;;5036625;28;20436;-71
2023/11/26 05:01:15;;;;;;;2.45;1.15;;;-3.30;100.00;;;;;;5039279;28;20044;-71
2023/11/26 05:03:42;;;;;;;3.15;0.88;;;-3.30;100.00;;;;;;5040308;28;20600;-71
2023/11/26 05:06:11;;;;;;;6.03;1.00;;;-3.30;100.00;;;;;;5037268;28;20132;-71
2023/11/26 05:08:38;;;;;;;3.35;1.40;;;-3.30;100.00;;;;;;5036802;28;20135;-71
2023/11/26 05:11:06;;;;;;;3.28;1.50;;;-3.20;100.00;;;;;;5038039;28;20045;-71
2023/11/26 05:13:33;;;;;;;1.90;0.90;;;-3.20;100.00;;;;;;5037970;28;20061;-71
2023/11/26 05:16:00;;;;;;;3.55;0.93;;;-3.20;100.00;;;;;;5036256;28;20513;-72
2023/11/26 05:18:27;;;;;;;1.73;0.63;;;-3.30;100.00;;;;;;5036133;28;20057;-71
2023/11/26 05:20:54;;;;;;;2.75;1.05;;;-3.30;100.00;;;;;;5038416;28;20044;-71
2023/11/26 05:23:20;;;;;;;1.33;0.82;;;-3.40;100.00;;;;;;5037694;28;20134;-71
2023/11/26 05:25:48;;;;;;;4.55;1.08;;;-3.40;100.00;;;;;;5036975;28;20448;-71
2023/11/26 05:28:15;;;;;;;3.00;1.02;;;-3.50;100.00;;;;;;5041989;28;20045;-71
2023/11/26 05:30:45;;;;;;;1.63;0.90;;;-3.60;100.00;;;;;;5037904;28;20132;-71
2023/11/26 05:33:12;;;;;;;1.75;0.90;;;-3.60;100.00;;;;;;5042131;28;20041;-71
2023/11/26 05:35:39;;;;;;;2.78;1.20;;;-3.70;100.00;;;;;;5041341;28;20929;-71
2023/11/26 05:38:06;;;;;;;3.08;1.23;;;-3.70;100.00;;;;;;5041974;28;20531;-71
2023/11/26 05:40:33;;;;;;;2.33;0.65;;;-3.70;100.00;;;;;;5039518;28;20529;-71
2023/11/26 05:42:59;;;;;;;3.67;1.23;;;-3.70;100.00;;;;;;5041071;28;20049;-71
2023/11/26 05:45:26;;;;;;;1.55;0.90;;;-3.70;100.00;;;;;;5040765;28;20122;-71
2023/11/26 05:47:55;;;;;;;1.38;0.98;;;-3.80;100.00;;;;;;5039328;28;20072;-71
2023/11/26 05:50:22;;;;;;;6.00;1.50;;;-3.80;100.00;;;;;;5042922;28;20052;-71
2023/11/26 05:52:49;;;;;;;4.63;1.63;;;-3.90;100.00;;;;;;5037293;28;20057;-71
2023/11/26 05:55:20;;;;;;;2.75;1.27;;;-3.80;100.00;;;;;;5042226;28;20056;-71
2023/11/26 05:57:47;;;;;;;3.47;1.50;;;-3.90;100.00;;;;;;5038184;28;20045;-71
2023/11/26 06:00:15;;;;;;;4.57;1.27;;;-3.90;100.00;;;;;;5041166;28;20113;-71
2023/11/26 06:02:42;;;;;;;4.25;1.75;;;-4.00;100.00;;;;;;5038867;28;20134;-70
2023/11/26 06:05:09;;;;;;;3.35;1.42;;;-4.00;100.00;;;;;;5037226;28;20107;-71
2023/11/26 06:07:36;;;;;;;2.10;1.42;;;-4.00;100.00;;;;;;5039293;28;20049;-71
2023/11/26 06:10:03;;;;;;;2.40;1.33;;;-4.00;100.00;;;;;;5041716;28;20087;-71
2023/11/26 06:12:31;;;;;;;8.13;1.58;;;-4.00;100.00;;;;;;5039103;28;20045;-70
2023/11/26 06:14:58;;;;;;;2.53;1.08;;;-4.00;100.00;;;;;;5044419;28;20056;-71
2023/11/26 06:17:25;;;;;;;8.13;1.92;;;-4.10;100.00;;;;;;5048845;28;20098;-71
2023/11/26 06:19:52;;;;;;;2.45;1.27;;;-4.10;100.00;;;;;;5050558;28;20053;-72
2023/11/26 06:22:19;;;;;;;3.97;1.02;;;-4.10;100.00;;;;;;5044450;28;20049;-71
2023/11/26 06:24:45;;;;;;;3.20;1.65;;;-4.10;100.00;;;;;;5041733;28;20808;-71
2023/11/26 06:27:13;;;;;;;4.60;1.48;;;-4.10;100.00;;;;;;5042408;28;20041;-71
2023/11/26 06:29:39;;;;;;;5.32;1.92;;;-4.20;100.00;;;;;;5046189;28;20056;-71
2023/11/26 06:32:09;;;;;;;2.50;1.63;;;-4.20;100.00;;;;;;5046542;28;20044;-71
2023/11/26 06:34:37;;;;;;;3.30;1.65;;;-4.20;100.00;;;;;;5043113;28;20464;-71
2023/11/26 06:37:05;;;;;;;8.02;1.52;;;-4.20;100.00;;;;;;5046306;28;20056;-71
2023/11/26 06:39:32;;;;;;;3.15;1.38;;;-4.20;100.00;;;;;;5039567;28;20572;-74
2023/11/26 06:41:59;;;;;;;1.35;1.15;;;-4.20;100.00;;;;;;5038727;28;20049;-74
2023/11/26 06:44:26;;;;;;;7.90;1.67;;;-4.20;100.00;;;;;;5035317;28;20044;-74
2023/11/26 06:46:53;;;;;;;2.95;1.10;;;-4.10;100.00;;;;;;5051118;28;20044;-74
2023/11/26 06:49:21;;;;;;;6.38;1.33;;;-4.00;100.00;;;;;;5054267;28;20072;-74
2023/11/26 06:51:49;;;;;;;3.30;1.67;;;-4.00;100.00;;;;;;5043745;28;20155;-74
2023/11/26 06:54:15;;;;;;;4.13;1.33;;;-3.90;100.00;;;;;;5043597;28;20041;-74
2023/11/26 06:56:42;;;;;;;2.38;1.38;;;-3.80;100.00;;;;;;5050338;28;20053;-74
2023/11/26 06:59:09;;;;;;;3.00;1.63;;;-3.80;100.00;;;;;;5059053;28;20102;-74
2023/11/26 07:01:36;;;;;;;13.73;1.65;;;-3.60;100.00;;;;;;5042294;28;20056;-74
2023/11/26 07:04:03;;;;;;;3.25;1.70;;;-3.60;100.00;;;;;;5043228;28;20143;-74
2023/11/26 07:06:31;;;;;;;4.13;2.35;;;-3.50;100.00;;;;;;5053113;28;20051;-72
2023/11/26 07:09:00;;;;;;;6.82;2.00;;;-3.40;100.00;;;;;;5038361;28;20773;-72
2023/11/26 07:11:28;;;;;;;5.97;1.77;;;-3.30;100.00;;;;;;5037769;28;20059;-72
2023/11/26 07:13:55;;;;;;;7.28;1.95;;;-3.20;100.00;;;;;;5043526;28;20041;-72
2023/11/26 07:16:25;;;;;;;5.00;3.28;;;-3.10;100.00;;;;;;5042580;28;20093;-74
2023/11/26 07:18:52;;;;;;;4.53;2.42;;;-3.00;100.00;;;;;;5043335;28;20052;-71
2023/11/26 07:21:19;;;;;;;3.90;1.38;;;-2.90;100.00;;;;;;5043667;28;20057;-72
2023/11/26 07:23:46;;;;;;;4.40;1.77;;;-2.90;100.00;;;;;;5041574;28;20093;-74
2023/11/26 07:26:18;;;;;;;5.82;2.20;;;-2.70;100.00;;;;;;5044983;28;20083;-71
2023/11/26 07:28:50;;;;;;;4.78;1.98;;;-2.70;100.00;;;;;;5043784;28;20093;-71
2023/11/26 07:31:26;;;;;;;4.22;2.00;;;-2.60;100.00;;;;;;5040518;28;20044;-74
2023/11/26 07:33:53;;;;;;;5.05;2.33;;;-2.60;100.00;;;;;;5048596;28;20127;-72
2023/11/26 07:36:24;;;;;;;4.32;2.25;;;-2.40;100.00;;;;;;5046857;28;20452;-71
2023/11/26 07:38:53;;;;;;;5.03;2.35;;;-2.40;100.00;;;;;;5044221;28;20059;-72
2023/11/26 07:41:21;;;;;;;7.78;1.95;;;-2.30;100.00;;;;;;5045109;28;20052;-72
2023/11/26 07:43:49;;;;;;;7.35;1.77;;;-2.20;100.00;;;;;;5047026;28;20048;-72
2023/11/26 07:46:16;;;;;;;5.25;2.05;;;-2.20;100.00;;;;;;5039957;28;20736;-74
2023/11/26 07:48:45;;;;;;;9.38;2.65;;;-2.10;100.00;;;;;;5047311;28;20059;-72
2023/11/26 07:51:13;;;;;;;7.00;3.20;;;-2.00;100.00;;;;;;5049008;28;20635;-72
2023/11/26 07:53:40;;;;;;;7.57;2.60;;;-1.90;100.00;;;;;;5043688;28;20628;-72
2023/11/26 07:56:08;;;;;;;11.77;3.53;;;-1.90;100.00;;;;;;5040856;28;20737;-72
2023/11/26 07:58:35;;;;;;;9.40;2.70;;;-1.80;100.00;;;;;;5042172;28;20486;-72
2023/11/26 08:01:03;;;;;;;5.47;2.55;;;-1.80;100.00;;;;;;5043832;28;20238;-72
2023/11/26 08:03:34;;;;;;;4.80;2.78;;;-1.70;100.00;;;;;;5037809;28;20444;-72
2023/11/26 08:06:06;;;;;;;9.02;3.10;;;-1.60;100.00;;;;;;5040744;28;20041;-71
2023/11/26 08:08:36;;;;;;;11.65;3.00;;;-1.50;100.00;;;;;;5043333;28;20043;-71
2023/11/26 08:11:09;;;;;;;6.35;3.03;;;-1.50;100.00;;;;;;5041473;28;20413;-74
2023/11/26 08:13:39;;;;;;;6.93;2.85;;;-1.40;100.00;;;;;;5041600;28;20553;-73
2023/11/26 08:16:08;;;;;;;6.57;2.90;;;-1.30;100.00;;;;;;5043667;28;20517;-72
2023/11/26 08:18:36;;;;;;;9.75;2.92;;;-1.20;100.00;;;;;;5040960;28;20048;-72
2023/11/26 08:21:06;;;;;;;9.30;3.42;;;-1.10;100.00;;;;;;5040166;28;20201;-72
2023/11/26 08:23:40;;;;;;;7.97;3.58;;;-1.00;100.00;;;;;;5038586;28;20045;-76
2023/11/26 08:26:39;;;;;;;9.37;3.20;;;-1.00;100.00;;;;;;5038667;28;20478;-76
2023/11/26 08:32:30;;;;;;;7.95;2.92;;;-0.90;100.00;;;;;;5036451;23;20111;-75
2023/11/26 08:34:58;;;;;;;8.00;3.00;;;-0.80;100.00;;;;;;5036930;28;20771;-69
2023/11/26 08:40:42;;;;;;;8.88;2.58;;;-0.60;100.00;;;;;;4913708;29;20398;-69
2023/11/26 08:43:14;;;;;;;8.10;2.88;;;-0.50;100.00;;;;;;4921677;29;20056;-68
2023/11/26 08:45:41;;;;;;;8.65;3.33;;;-0.50;100.00;;;;;;4926173;29;20067;-65
2023/11/26 08:48:10;;;;;;;9.85;2.55;;;-0.50;100.00;;;;;;4926005;29;20044;-68
2023/11/26 08:50:39;;;;;;;12.38;2.75;;;-0.40;100.00;;;;;;4923110;29;20048;-75
2023/11/26 08:53:09;;;;;;;7.38;2.45;;;-0.40;100.00;;;;;;4925022;29;20051;-69
2023/11/26 08:55:36;;;;;;;7.57;2.88;;;-0.30;100.00;;;;;;4920894;29;20063;-69
2023/11/26 08:58:03;;;;;;;7.85;2.58;;;-0.20;100.00;;;;;;4927665;29;20556;-68
2023/11/26 09:00:30;;;;;;;2.33;1.70;;;-0.20;100.00;;;;;;4928037;29;20059;-74
2023/11/26 09:02:57;;;;;;;5.57;1.98;;;-0.10;100.00;;;;;;4939740;29;20051;-68
2023/11/26 09:05:24;;;;;;;10.73;2.33;;;-0.10;100.00;;;;;;4930422;29;20079;-69
2023/11/26 09:07:52;;;;;;;5.25;2.15;;;0.00;100.00;;;;;;4936058;29;20062;-70
2023/11/26 09:10:22;;;;;;;6.95;2.05;;;0.00;100.00;;;;;;4930727;29;20505;-69
2023/11/26 09:12:49;;;;;;;2.63;1.42;;;0.00;100.00;;;;;;4935628;29;20516;-72
2023/11/26 09:19:00;;;;;;;7.60;2.28;;;0.10;100.00;;;;;;5020105;28;20049;-72
2023/11/26 09:21:28;;;;;;;4.45;1.75;;;0.20;100.00;;;;;;5024983;28;20053;-72
2023/11/26 09:23:55;;;;;;;7.00;2.47;;;0.30;100.00;;;;;;5026198;28;20072;-72
2023/11/26 09:26:25;;;;;;;7.03;2.05;;;0.30;100.00;;;;;;5027316;28;20172;-73
2023/11/26 09:28:52;;;;;;;3.90;1.60;;;0.30;100.00;;;;;;5026205;28;20510;-74
2023/11/26 09:31:24;;;;;;;6.53;1.58;;;0.30;100.00;;;;;;5024881;28;20049;-73
2023/11/26 09:33:51;;;;;;;4.93;2.22;;;0.40;100.00;;;;;;5005493;28;20049;-71
2023/11/26 09:36:18;;;;;;;11.20;2.22;;;0.50;100.00;;;;;;5005136;28;20052;-74
2023/11/26 09:38:45;;;;;;;6.25;2.33;;;0.60;100.00;;;;;;5022600;28;20061;-73
2023/11/26 09:41:19;;;;;;;10.07;2.10;;;0.60;100.00;;;;;;5023357;28;20111;-73
2023/11/26 09:43:46;;;;;;;11.55;2.00;;;0.70;100.00;;;;;;5023312;28;20806;-72
2023/11/26 09:46:18;;;;;;;3.72;1.80;;;0.70;100.00;;;;;;5022248;28;20073;-73
2023/11/26 09:48:45;;;;;;;6.38;2.13;;;0.70;100.00;;;;;;5004893;28;20049;-72
2023/11/26 09:51:15;;;;;;;8.52;2.40;;;0.70;100.00;;;;;;5021746;28;20054;-72
2023/11/26 09:53:43;;;;;;;6.32;1.73;;;0.70;100.00;;;;;;5017417;28;20056;-71
2023/11/26 09:56:11;;;;;;;7.47;1.92;;;0.80;100.00;;;;;;5023625;28;20085;-71
2023/11/26 09:58:39;;;;;;;7.95;1.98;;;0.80;100.00;;;;;;5027917;28;20057;-73
2023/11/26 10:01:13;;;;;;;6.13;1.83;;;0.80;100.00;;;;;;5010514;28;20128;-73
2023/11/26 10:03:56;;;;;;;4.57;1.23;;;0.90;100.00;;;;;;5005286;28;20172;-73
2023/11/26 10:06:25;;;;;;;9.50;2.35;;;0.90;100.00;;;;;;5019964;28;20061;-74
2023/11/26 10:08:52;;;;;;;9.18;2.60;;;1.00;100.00;;;;;;4999469;28;20513;-74
2023/11/26 10:11:22;;;;;;;8.23;2.42;;;1.10;100.00;;;;;;5021889;28;20107;-74
2023/11/26 10:13:49;;;;;;;8.18;3.03;;;1.20;100.00;;;;;;5019101;28;20046;-74
2023/11/26 10:16:33;;;;;;;8.90;3.17;;;1.30;100.00;;;;;;5025226;28;20045;-74
2023/11/26 10:19:02;;;;;;;6.05;2.70;;;1.40;100.00;;;;;;5016499;28;20155;-74
2023/11/26 10:21:32;;;;;;;9.05;2.88;;;1.40;100.00;;;;;;5006890;28;20057;-74
2023/11/26 10:24:01;;;;;;;7.55;3.15;;;1.40;100.00;;;;;;5010304;28;20774;-74
2023/11/26 10:26:29;;;;;;;8.25;2.25;;;1.40;100.00;;;;;;5005703;28;20077;-74
2023/11/26 10:29:07;;;;;;;9.25;2.13;;;1.60;100.00;;;;;;5019748;28;20745;-74
2023/11/26 10:31:37;;;;;;;5.97;2.05;;;1.70;100.00;;;;;;5022979;28;20100;-74
2023/11/26 10:34:14;;;;;;;6.78;1.83;;;1.70;100.00;;;;;;5024166;28;20136;-74
2023/11/26 10:36:42;;;;;;;4.40;1.80;;;1.70;100.00;;;;;;5017807;28;20049;-73
2023/11/26 10:39:11;;;;;;;4.63;1.60;;;1.80;100.00;;;;;;5022892;28;20111;-73
2023/11/26 10:41:39;;;;;;;7.85;2.15;;;1.90;100.00;;;;;;5021549;28;20053;-73
2023/11/26 10:44:07;;;;;;;3.22;1.80;;;1.90;100.00;;;;;;5009604;28;20073;-74
2023/11/26 10:46:35;;;;;;;8.13;2.20;;;2.00;100.00;;;;;;5023224;28;20053;-75
2023/11/26 10:49:07;;;;;;;4.07;1.80;;;1.90;100.00;;;;;;5023183;28;20050;-75
2023/11/26 10:51:38;;;;;;;3.45;1.80;;;1.90;100.00;;;;;;5021231;28;20061;-75
2023/11/26 10:54:09;;;;;;;5.53;1.88;;;2.00;100.00;;;;;;5021756;28;20046;-73
2023/11/26 10:56:39;;;;;;;9.13;1.98;;;2.10;100.00;;;;;;5021569;28;20410;-74
2023/11/26 10:59:16;;;;;;;5.68;2.13;;;2.00;100.00;;;;;;5022074;28;20107;-73
2023/11/26 11:01:44;;;;;;;4.30;1.45;;;2.10;100.00;;;;;;5027374;28;20056;-73
2023/11/26 11:04:24;;;;;;;3.25;1.70;;;2.00;100.00;;;;;;4997721;28;20104;-74
2023/11/26 11:07:13;;;;;;;7.35;2.00;;;2.00;100.00;;;;;;5005515;28;20053;-72
2023/11/26 11:10:08;;;;;;;3.38;1.70;;;2.00;100.00;;;;;;5006346;28;20073;-75
2023/11/26 11:12:51;;;;;;;6.95;1.85;;;2.10;100.00;;;;;;5019758;28;20087;-75
2023/11/26 11:15:24;;;;;;;8.82;2.10;;;2.10;100.00;;;;;;5022162;28;20140;-75
2023/11/26 11:17:51;;;;;;;8.60;1.85;;;2.00;100.00;;;;;;5021122;28;20303;-75
2023/11/26 11:20:18;;;;;;;6.47;1.95;;;2.00;100.00;;;;;;5021415;28;20049;-74
2023/11/26 11:22:46;;;;;;;9.73;2.10;;;1.90;100.00;;;;;;5019881;28;20053;-76
2023/11/26 11:25:19;;;;;;;4.95;1.70;;;2.00;100.00;;;;;;5006476;28;20077;-75
2023/11/26 11:27:54;;;;;;;3.58;1.52;;;1.90;100.00;;;;;;5008490;28;20103;-75
2023/11/26 11:30:31;;;;;;;4.80;1.58;;;1.90;100.00;;;;;;5001128;28;20938;-75
2023/11/26 11:33:05;;;;;;;9.13;2.05;;;1.90;100.00;;;;;;5019434;28;20498;-75
2023/11/26 11:35:35;;;;;;;3.10;1.30;;;2.00;100.00;;;;;;5020667;28;20306;-75
2023/11/26 11:38:06;;;;;;;9.27;1.98;;;2.40;100.00;;;;;;5019231;28;20104;-75
2023/11/26 11:40:59;;;;;;;3.42;1.70;;;3.00;100.00;;;;;;5020590;28;20144;-75
2023/11/26 11:43:27;;;;;;;7.13;1.98;;;3.10;100.00;;;;;;5008308;28;20057;-75
2023/11/26 11:45:54;;;;;;;5.45;1.40;;;3.00;100.00;;;;;;5021736;28;20061;-75
2023/11/26 11:48:40;;;;;;;3.70;1.30;;;3.10;100.00;;;;;;5019626;28;20135;-75
2023/11/26 11:51:29;;;;;;;6.88;1.40;;;3.90;100.00;;;;;;5022016;28;20046;-75
2023/11/26 11:54:21;;;;;;;2.65;1.17;;;4.50;100.00;;;;;;5020049;28;20037;-75
2023/11/26 11:56:57;;;;;;;5.82;1.90;;;4.60;96.80;;;;;;5003860;28;20048;-75
2023/11/26 11:59:25;;;;;;;3.85;1.50;;;4.40;94.60;;;;;;5003101;28;20581;-75
2023/11/26 12:01:52;;;;;;;3.75;1.42;;;3.90;100.00;;;;;;5002425;28;20487;-75
2023/11/26 12:04:39;;;;;;;4.07;1.75;;;3.90;96.80;;;;;;5021013;28;20049;-75
2023/11/26 12:07:07;;;;;;;5.50;1.30;;;4.00;97.30;;;;;;5019657;28;20045;-75
2023/11/26 12:09:39;;;;;;;4.28;1.27;;;4.10;96.50;;;;;;4990567;28;20108;-75
2023/11/26 12:12:07;;;;;;;10.50;1.50;;;4.10;98.90;;;;;;5002335;28;20771;-75
2023/11/26 12:14:37;;;;;;;2.97;1.50;;;4.10;99.70;;;;;;5020788;28;20085;-75
2023/11/26 12:17:06;;;;;;;2.08;1.10;;;3.90;97.50;;;;;;5009454;28;20141;-75
2023/11/26 12:19:40;;;;;;;4.53;1.45;;;3.70;99.90;;;;;;5019051;28;20061;-75
2023/11/26 12:22:08;;;;;;;2.55;1.30;;;3.60;100.00;;;;;;5001270;28;20885;-75
2023/11/26 12:24:37;;;;;;;4.30;1.40;;;3.60;100.00;;;;;;5022197;28;20498;-75
2023/11/26 12:27:04;;;;;;;3.53;1.50;;;3.50;100.00;;;;;;5007521;28;20136;-75
2023/11/26 12:29:33;;;;;;;4.70;1.77;;;3.40;100.00;;;;;;5023998;28;20103;-75
2023/11/26 12:32:07;;;;;;;5.03;1.90;;;3.40;100.00;;;;;;5018430;28;20104;-75
2023/11/26 12:34:39;;;;;;;7.15;2.13;;;3.50;100.00;;;;;;5027850;28;20443;-75
2023/11/26 12:37:09;;;;;;;3.55;1.50;;;3.80;100.00;;;;;;4999721;28;20073;-75
2023/11/26 12:39:40;;;;;;;4.78;1.75;;;4.00;100.00;;;;;;5026445;28;20053;-75
2023/11/26 12:42:07;;;;;;;6.03;1.73;;;4.10;97.50;;;;;;5025485;28;20138;-75
2023/11/26 12:44:35;;;;;;;3.47;1.67;;;4.00;98.20;;;;;;5028213;28;20146;-75
2023/11/26 12:47:09;;;;;;;5.30;1.80;;;3.90;100.00;;;;;;5025035;28;20131;-75
2023/11/26 12:49:38;;;;;;;10.10;1.98;;;3.90;97.60;;;;;;5027855;28;20049;-76
2023/11/26 12:52:09;;;;;;;4.78;2.10;;;3.70;98.50;;;;;;5025964;28;20053;-76
2023/11/26 12:54:36;;;;;;;3.88;1.38;;;3.50;100.00;;;;;;5006790;28;20045;-76
2023/11/26 12:57:04;;;;;;;5.45;2.05;;;3.30;100.00;;;;;;5009359;28;20053;-75
2023/11/26 12:59:47;;;;;;;6.70;2.08;;;3.10;100.00;;;;;;5024250;28;20059;-76
2023/11/26 13:02:15;;;;;;;10.25;2.80;;;2.90;100.00;;;;;;5024357;28;20064;-76
2023/11/26 13:04:43;;;;;;;4.28;2.20;;;2.60;100.00;;;;;;5028679;23;20132;-75